Time;durP1;ratioP1;P1;durP2;ratioP2;P2;SDS_P1;SDS_P2;PMS_P1;PMS_P2;Temp;Humidity;BMP_temperature;BMP_pressure;BME280_temperature;BME280_humidity;BME280_pressure;Samples;Min_cycle;Max_cycle;Signal;HPM_P1;HPM_P2
2022/11/26 00:00:49;;;;;;;11.43;4.85;;;;;;;8.44;74.78;97568.06;6097448;23;20062;-81
2022/11/26 00:03:17;;;;;;;14.85;5.32;;;;;;;8.42;74.84;97573.41;6098297;23;20022;-81
2022/11/26 00:05:48;;;;;;;12.00;5.60;;;;;;;8.43;74.80;97582.00;6097503;23;20412;-81
2022/11/26 00:08:19;;;;;;;10.65;5.05;;;;;;;8.43;75.10;97582.81;6097448;23;20014;-81
2022/11/26 00:10:49;;;;;;;10.00;5.28;;;;;;;8.42;74.95;97576.00;6098098;23;20026;-81
2022/11/26 00:13:20;;;;;;;9.52;5.13;;;;;;;8.40;75.35;97584.88;6099032;23;20101;-81
2022/11/26 00:15:49;;;;;;;12.00;5.05;;;;;;;8.41;75.28;97589.94;6115185;23;20022;-81
2022/11/26 00:18:18;;;;;;;14.77;5.00;;;;;;;8.42;75.20;97586.41;6114244;23;20058;-81
2022/11/26 00:20:50;;;;;;;14.85;5.53;;;;;;;8.43;74.94;97592.41;6116538;23;20022;-81
2022/11/26 00:23:20;;;;;;;11.98;5.28;;;;;;;8.42;74.40;97595.97;6114853;23;20110;-80
2022/11/26 00:25:50;;;;;;;9.15;4.43;;;;;;;8.40;74.68;97590.91;6097871;23;20022;-81
2022/11/26 00:28:28;;;;;;;13.55;4.75;;;;;;;8.41;76.46;97597.75;6097569;23;20014;-80
2022/11/26 00:30:59;;;;;;;12.07;4.68;;;;;;;8.40;76.14;97593.53;6098282;23;20036;-81
2022/11/26 00:33:27;;;;;;;8.70;4.90;;;;;;;8.40;75.75;97609.13;6097590;23;20023;-80
2022/11/26 00:35:58;;;;;;;9.02;4.30;;;;;;;8.38;75.51;97613.59;6097093;23;20467;-80
2022/11/26 00:38:26;;;;;;;11.00;4.80;;;;;;;8.38;75.02;97599.78;6097057;23;20101;-80
2022/11/26 00:40:53;;;;;;;10.25;5.43;;;;;;;8.38;74.37;97615.41;6096690;23;20015;-80
2022/11/26 00:43:21;;;;;;;13.10;4.82;;;;;;;8.38;73.92;97612.78;6097164;23;20378;-81
2022/11/26 00:45:49;;;;;;;8.93;5.22;;;;;;;8.39;75.05;97611.81;6096655;23;20090;-80
2022/11/26 00:48:18;;;;;;;11.25;5.10;;;;;;;8.39;74.98;97611.81;6096416;23;20033;-80
2022/11/26 00:50:48;;;;;;;8.98;4.63;;;;;;;8.38;74.45;97605.00;6096417;23;20034;-80
2022/11/26 00:53:18;;;;;;;10.93;4.13;;;;;;;8.37;74.51;97611.13;6096909;23;20030;-80
2022/11/26 00:55:48;;;;;;;7.82;3.97;;;;;;;8.36;75.14;97604.31;6097223;23;20025;-80
2022/11/26 00:58:23;;;;;;;11.02;4.57;;;;;;;8.38;75.06;97613.59;6096126;23;20022;-80
2022/11/26 01:00:59;;;;;;;7.97;4.57;;;;;;;8.38;73.96;97611.00;6096812;23;20489;-80
2022/11/26 01:03:29;;;;;;;11.05;4.18;;;;;;;8.36;73.87;97614.72;6097532;23;20029;-81
2022/11/26 01:05:58;;;;;;;9.52;3.85;;;;;;;8.36;73.87;97614.72;6096690;23;20022;-80
2022/11/26 01:08:29;;;;;;;13.60;4.30;;;;;;;8.37;74.42;97618.94;6096170;23;20018;-81
2022/11/26 01:10:58;;;;;;;8.00;4.15;;;;;;;8.38;74.22;97621.41;6097163;23;20156;-80
2022/11/26 01:13:26;;;;;;;13.07;5.22;;;;;;;8.36;73.71;97628.53;6098154;23;20050;-81
2022/11/26 01:15:54;;;;;;;11.27;4.80;;;;;;;8.38;74.70;97628.41;6096964;23;20029;-80
2022/11/26 01:18:23;;;;;;;7.95;4.18;;;;;;;8.39;74.75;97624.81;6096979;23;20033;-81
2022/11/26 01:20:52;;;;;;;9.10;4.15;;;;;;;8.40;74.99;97623.88;6097134;23;20045;-80
2022/11/26 01:23:20;;;;;;;9.05;4.35;;;;;;;8.40;75.30;97629.06;6096876;23;20019;-80
2022/11/26 01:25:48;;;;;;;7.93;3.97;;;;;;;8.39;75.15;97638.63;6097102;23;20027;-79
2022/11/26 01:28:17;;;;;;;8.52;3.72;;;;;;;8.40;74.48;97644.69;6096322;23;20033;-80
2022/11/26 01:30:45;;;;;;;8.65;4.25;;;;;;;8.40;74.90;97644.69;6096239;23;20022;-80
2022/11/26 01:33:13;;;;;;;11.63;3.53;;;;;;;8.42;75.16;97642.78;6096278;23;20018;-80
2022/11/26 01:35:40;;;;;;;8.57;3.45;;;;;;;8.40;74.67;97644.69;6095972;23;20034;-80
2022/11/26 01:38:12;;;;;;;14.73;4.60;;;;;;;8.42;75.74;97653.19;6095689;23;20026;-80
2022/11/26 01:40:55;;;;;;;7.57;3.08;;;;;;;8.43;75.67;97658.22;6096398;23;20501;-80
2022/11/26 01:43:26;;;;;;;8.27;3.60;;;;;;;8.42;74.75;97655.78;6096602;23;20026;-80
2022/11/26 01:45:54;;;;;;;12.95;4.85;;;;;;;8.40;74.60;97660.28;6096764;23;20029;-80
2022/11/26 01:48:26;;;;;;;11.05;4.20;;;;;;;8.41;74.58;97661.94;6096770;23;20083;-80
2022/11/26 01:51:03;;;;;;;8.95;3.65;;;;;;;8.41;75.34;97660.13;6096742;23;20022;-80
2022/11/26 01:53:41;;;;;;;10.35;3.83;;;;;;;8.41;75.15;97667.13;6096620;23;20023;-80
2022/11/26 01:56:30;;;;;;;10.48;4.20;;;;;;;8.41;74.23;97672.31;6098553;23;20041;-81
2022/11/26 01:59:06;;;;;;;8.18;3.42;;;;;;;8.39;73.88;97679.41;6098285;23;20030;-80
2022/11/26 02:01:34;;;;;;;13.73;4.22;;;;;;;8.38;74.52;97675.19;6098516;23;20022;-80
2022/11/26 02:04:15;;;;;;;10.43;4.30;;;;;;;8.38;75.52;97677.78;6097996;23;20026;-80
2022/11/26 02:06:44;;;;;;;10.00;4.13;;;;;;;8.37;74.69;97684.75;6098092;23;20033;-80
2022/11/26 02:09:14;;;;;;;8.18;3.55;;;;;;;8.36;75.14;97685.72;6097850;23;20077;-81
2022/11/26 02:11:42;;;;;;;11.00;3.55;;;;;;;8.35;75.02;97683.25;6098384;23;20034;-80
2022/11/26 02:14:15;;;;;;;8.73;3.47;;;;;;;8.35;75.20;97689.31;6097772;23;20363;-80
2022/11/26 02:16:56;;;;;;;6.85;4.25;;;;;;;8.35;75.89;97688.47;6098214;23;20026;-81
2022/11/26 02:19:54;;;;;;;13.23;4.45;;;;;;;8.36;75.05;97690.13;6097779;23;20022;-80
2022/11/26 02:22:42;;;;;;;11.57;3.97;;;;;;;8.37;74.79;97697.75;6083489;23;20027;-80
2022/11/26 02:25:19;;;;;;;7.70;3.97;;;;;;;8.36;76.29;97703.09;6097883;23;20023;-80
2022/11/26 02:28:20;;;;;;;9.52;4.07;;;;;;;8.37;76.38;97695.16;6097563;23;20019;-80
2022/11/26 02:30:56;;;;;;;10.48;4.90;;;;;;;8.36;75.90;97697.91;6098322;23;20076;-80
2022/11/26 02:33:29;;;;;;;10.68;4.35;;;;;;;8.35;75.22;97704.06;6098047;23;20023;-80
2022/11/26 02:36:01;;;;;;;7.90;4.35;;;;;;;8.35;75.27;97704.06;6098075;23;20019;-80
2022/11/26 02:38:29;;;;;;;13.07;4.40;;;;;;;8.34;76.01;97703.25;6097359;23;20093;-80
2022/11/26 02:40:57;;;;;;;8.13;4.28;;;;;;;8.35;75.92;97704.06;6098051;23;20122;-80
2022/11/26 02:43:26;;;;;;;8.48;4.05;;;;;;;8.33;75.86;97714.63;6097704;23;20018;-80
2022/11/26 02:45:59;;;;;;;9.90;4.50;;;;;;;8.33;76.39;97704.22;6097572;23;20025;-80
2022/11/26 02:48:31;;;;;;;9.63;4.50;;;;;;;8.33;76.05;97706.81;6097689;23;20023;-80
2022/11/26 02:51:03;;;;;;;9.93;4.50;;;;;;;8.32;75.81;97712.16;6097539;23;20363;-80
2022/11/26 02:53:33;;;;;;;9.50;3.97;;;;;;;8.32;75.68;97718.16;6097873;23;20019;-81
2022/11/26 02:56:05;;;;;;;12.77;5.00;;;;;;;8.32;75.63;97715.56;6097547;23;20014;-80
2022/11/26 02:58:34;;;;;;;10.52;4.43;;;;;;;8.32;75.59;97719.94;6116051;23;20065;-80
2022/11/26 03:01:08;;;;;;;8.80;4.47;;;;;;;8.31;76.36;97719.13;6113228;23;20026;-80
2022/11/26 03:03:40;;;;;;;10.05;4.57;;;;;;;8.31;75.55;97728.69;6098763;23;20403;-80
2022/11/26 03:06:10;;;;;;;7.88;4.40;;;;;;;8.32;75.66;97735.53;6097590;23;20030;-80
2022/11/26 03:08:38;;;;;;;9.52;4.47;;;;;;;8.32;75.98;97735.53;6097608;23;20361;-80
2022/11/26 03:11:06;;;;;;;11.27;5.32;;;;;;;8.30;75.87;97732.25;6097370;23;20034;-80
2022/11/26 03:13:34;;;;;;;12.50;4.47;;;;;;;8.29;76.29;97741.00;6097671;23;20018;-80
2022/11/26 03:16:04;;;;;;;9.48;4.10;;;;;;;8.27;76.29;97743.75;6097317;23;20025;-81
2022/11/26 03:18:31;;;;;;;10.48;3.97;;;;;;;8.28;75.84;97748.00;6097714;23;20049;-80
2022/11/26 03:21:00;;;;;;;7.60;4.50;;;;;;;8.27;75.71;97748.97;6097656;23;20074;-80
2022/11/26 03:23:27;;;;;;;13.68;4.68;;;;;;;8.27;75.70;97755.94;6097714;23;20025;-80
2022/11/26 03:25:55;;;;;;;8.68;3.88;;;;;;;8.25;75.86;97759.50;6096995;23;20022;-80
2022/11/26 03:28:22;;;;;;;14.93;4.82;;;;;;;8.25;75.69;97761.28;6097351;23;20022;-80
2022/11/26 03:30:50;;;;;;;10.10;4.25;;;;;;;8.25;76.22;97772.50;6097296;23;20019;-80
2022/11/26 03:33:19;;;;;;;9.02;4.57;;;;;;;8.24;75.66;97765.66;6097246;23;20026;-80
2022/11/26 03:35:48;;;;;;;10.60;4.82;;;;;;;8.24;75.96;97765.66;6097660;23;20022;-80
2022/11/26 03:38:16;;;;;;;8.40;4.53;;;;;;;8.23;76.62;97764.00;6097055;23;20030;-80
2022/11/26 03:40:44;;;;;;;11.73;5.55;;;;;;;8.22;75.93;97764.97;6096823;23;20054;-80
2022/11/26 03:43:12;;;;;;;12.10;4.22;;;;;;;8.23;75.62;97771.00;6097529;23;20022;-80
2022/11/26 03:45:39;;;;;;;8.98;5.18;;;;;;;8.23;75.51;97774.41;6097647;23;20022;-80
2022/11/26 03:48:07;;;;;;;10.00;4.78;;;;;;;8.24;75.26;97783.00;6097277;23;20022;-80
2022/11/26 03:50:36;;;;;;;9.32;4.82;;;;;;;8.23;74.99;97784.81;6097303;23;20026;-81
2022/11/26 03:53:03;;;;;;;9.30;4.78;;;;;;;8.21;75.64;97781.50;6098033;23;20042;-80
2022/11/26 03:55:31;;;;;;;9.68;4.57;;;;;;;8.20;76.28;97782.50;6120061;23;20026;-80
2022/11/26 03:57:59;;;;;;;7.70;4.47;;;;;;;8.19;75.84;97786.03;6120817;23;20030;-81
2022/11/26 04:00:26;;;;;;;13.10;5.32;;;;;;;8.20;75.34;97790.28;6119795;23;20022;-80
2022/11/26 04:02:54;;;;;;;9.90;4.38;;;;;;;8.19;75.09;97787.81;6100500;23;20120;-80
2022/11/26 04:05:21;;;;;;;8.18;4.45;;;;;;;8.18;75.48;97792.19;6098274;23;20018;-80
2022/11/26 04:07:50;;;;;;;9.88;5.25;;;;;;;8.14;75.60;97790.81;6097790;23;20034;-80
2022/11/26 04:10:18;;;;;;;12.00;5.03;;;;;;;8.14;76.21;97793.44;6097099;23;20018;-80
2022/11/26 04:12:46;;;;;;;9.52;4.93;;;;;;;8.13;76.03;97789.16;6097070;23;20368;-80
2022/11/26 04:15:13;;;;;;;12.48;5.13;;;;;;;8.13;76.16;97793.56;6093534;23;20024;-77
2022/11/26 04:17:41;;;;;;;10.20;5.00;;;;;;;8.13;76.32;97799.56;6095921;23;20491;-77
2022/11/26 04:20:09;;;;;;;8.63;5.30;;;;;;;8.12;76.17;97797.94;6096015;23;20029;-77
2022/11/26 04:22:37;;;;;;;11.52;6.28;;;;;;;8.11;76.43;97806.72;6096076;23;20026;-77
2022/11/26 04:25:06;;;;;;;9.88;5.13;;;;;;;8.11;76.39;97806.72;6096141;23;20079;-77
2022/11/26 04:27:34;;;;;;;11.68;6.03;;;;;;;8.10;76.05;97799.84;6096437;23;20026;-77
2022/11/26 04:30:01;;;;;;;9.60;6.07;;;;;;;8.10;76.63;97810.25;6095869;23;20494;-77
2022/11/26 04:32:29;;;;;;;12.48;5.90;;;;;;;8.10;77.11;97819.81;6096594;23;20033;-77
2022/11/26 04:34:56;;;;;;;11.95;5.43;;;;;;;8.08;76.98;97816.53;6095939;23;20022;-76
2022/11/26 04:37:24;;;;;;;10.82;5.75;;;;;;;8.08;77.16;97817.34;6096117;23;20026;-77
2022/11/26 04:39:51;;;;;;;14.27;5.97;;;;;;;8.07;77.07;97810.53;6097333;23;20045;-77
2022/11/26 04:42:20;;;;;;;10.95;6.32;;;;;;;8.07;76.92;97814.88;6096144;23;20033;-77
2022/11/26 04:44:48;;;;;;;11.57;5.70;;;;;;;8.07;77.20;97813.13;6096189;23;20025;-77
2022/11/26 04:47:15;;;;;;;8.73;5.53;;;;;;;8.08;76.98;97806.97;6095884;23;20034;-77
2022/11/26 04:49:43;;;;;;;9.15;5.75;;;;;;;8.09;76.94;97810.38;6095992;23;20023;-78
2022/11/26 04:52:11;;;;;;;15.32;6.60;;;;;;;8.10;77.23;97820.63;6096218;23;20101;-76
2022/11/26 04:54:38;;;;;;;11.98;5.40;;;;;;;8.11;77.01;97826.66;6096296;23;20355;-77
2022/11/26 04:57:06;;;;;;;9.02;5.70;;;;;;;8.10;76.91;97828.44;6096330;23;20023;-77
2022/11/26 04:59:35;;;;;;;7.18;5.60;;;;;;;8.11;77.39;97826.66;6095463;23;20018;-77
2022/11/26 05:02:02;;;;;;;14.30;6.45;;;;;;;8.09;77.45;97816.41;6096196;23;20030;-78
2022/11/26 05:04:30;;;;;;;17.02;6.13;;;;;;;8.08;76.84;97825.16;6096110;23;20019;-77
2022/11/26 05:06:57;;;;;;;19.20;6.82;;;;;;;8.08;77.07;97821.75;6095705;23;20034;-77
2022/11/26 05:09:25;;;;;;;10.15;5.63;;;;;;;8.09;77.55;97832.00;6095734;23;20026;-77
2022/11/26 05:11:53;;;;;;;14.82;6.32;;;;;;;8.08;77.75;97830.34;6096151;23;20029;-77
2022/11/26 05:14:20;;;;;;;11.65;5.65;;;;;;;8.09;77.27;97832.00;6095555;23;20026;-77
2022/11/26 05:16:49;;;;;;;9.57;5.63;;;;;;;8.08;77.65;97829.53;6095958;23;20358;-77
2022/11/26 05:19:17;;;;;;;10.77;6.10;;;;;;;8.07;77.60;97839.13;6095785;23;20030;-78
2022/11/26 05:21:44;;;;;;;10.45;6.00;;;;;;;8.07;77.40;97844.31;6095958;23;20023;-77
2022/11/26 05:24:12;;;;;;;14.30;6.95;;;;;;;8.08;77.55;97858.13;6095797;23;20029;-77
2022/11/26 05:26:39;;;;;;;11.80;6.28;;;;;;;8.08;77.46;97845.13;6096057;23;20022;-77
2022/11/26 05:29:07;;;;;;;14.10;6.03;;;;;;;8.06;77.27;97847.84;6095985;23;20027;-78
2022/11/26 05:31:34;;;;;;;14.30;6.20;;;;;;;8.06;77.61;97845.25;6098952;23;20033;-76
2022/11/26 05:34:04;;;;;;;16.05;7.35;;;;;;;8.07;77.66;97846.06;6099325;23;20026;-77
2022/11/26 05:36:31;;;;;;;12.27;6.72;;;;;;;8.05;77.66;97849.63;6098048;23;20039;-77
2022/11/26 05:38:59;;;;;;;13.88;6.50;;;;;;;8.06;77.39;97845.25;6097488;23;20029;-77
2022/11/26 05:41:26;;;;;;;9.65;5.20;;;;;;;8.06;77.34;97847.84;6097933;23;20022;-77
2022/11/26 05:43:54;;;;;;;12.80;6.78;;;;;;;8.05;77.06;97841.03;6097951;23;20085;-76
2022/11/26 05:46:21;;;;;;;10.55;6.20;;;;;;;8.03;77.43;97846.34;6097905;23;20022;-77
2022/11/26 05:48:49;;;;;;;14.60;6.55;;;;;;;8.04;78.00;97841.97;6097633;23;20029;-77
2022/11/26 05:51:18;;;;;;;11.85;5.97;;;;;;;8.04;77.83;97840.19;6097781;23;20027;-77
2022/11/26 05:53:45;;;;;;;15.55;6.22;;;;;;;8.05;77.56;97838.44;6097811;23;20332;-77
2022/11/26 05:56:13;;;;;;;12.93;6.18;;;;;;;8.07;77.75;97841.72;6097589;23;20033;-77
2022/11/26 05:58:42;;;;;;;17.13;8.07;;;;;;;8.07;77.73;97852.09;6096980;23;20041;-78
2022/11/26 06:01:10;;;;;;;15.88;7.38;;;;;;;8.09;77.59;97844.16;6097645;23;20026;-77
2022/11/26 06:03:38;;;;;;;11.50;6.75;;;;;;;8.10;77.65;97845.81;6097816;23;20030;-78
2022/11/26 06:06:06;;;;;;;11.18;6.80;;;;;;;8.09;77.90;97849.34;6097229;23;20023;-76
2022/11/26 06:08:35;;;;;;;10.18;6.22;;;;;;;8.08;77.92;97852.94;6096596;23;20030;-77
2022/11/26 06:11:02;;;;;;;10.30;6.63;;;;;;;8.07;77.37;97854.72;6097430;23;20086;-77
2022/11/26 06:13:30;;;;;;;10.38;6.07;;;;;;;8.05;77.10;97851.41;6097598;23;20022;-77
2022/11/26 06:15:58;;;;;;;11.98;6.82;;;;;;;8.04;76.92;97860.16;6096861;23;20022;-77
2022/11/26 06:18:25;;;;;;;10.60;7.30;;;;;;;8.04;77.41;97855.78;6096672;23;20026;-77
2022/11/26 06:20:53;;;;;;;14.88;7.05;;;;;;;8.07;77.79;97862.50;6095474;23;20048;-77
2022/11/26 06:23:20;;;;;;;19.80;8.40;;;;;;;8.08;78.00;97861.53;6095319;23;20026;-77
2022/11/26 06:25:49;;;;;;;12.60;7.47;;;;;;;8.09;78.59;97863.19;6095271;23;20370;-77
2022/11/26 06:28:17;;;;;;;17.13;9.32;;;;;;;8.09;78.26;97868.38;6095125;23;20029;-81
2022/11/26 06:30:45;;;;;;;13.20;8.57;;;;;;;8.08;77.72;97868.50;6095073;23;20029;-77
2022/11/26 06:33:13;;;;;;;15.25;8.57;;;;;;;8.06;78.21;97871.25;6095799;23;20033;-78
2022/11/26 06:35:40;;;;;;;15.98;8.43;;;;;;;8.05;77.92;97880.00;6097263;23;20018;-78
2022/11/26 06:38:08;;;;;;;16.13;7.72;;;;;;;8.05;77.59;97880.00;6096856;23;20470;-79
2022/11/26 06:40:36;;;;;;;14.95;7.45;;;;;;;8.01;77.20;97878.63;6096451;23;20022;-79
2022/11/26 06:43:05;;;;;;;17.27;7.85;;;;;;;7.99;77.48;97880.53;6097949;23;20048;-79
2022/11/26 06:45:34;;;;;;;19.90;8.95;;;;;;;7.98;77.32;97889.28;6100287;23;20018;-79
2022/11/26 06:48:02;;;;;;;10.95;7.72;;;;;;;7.98;77.75;97886.69;6111511;23;20054;-81
2022/11/26 06:50:29;;;;;;;24.60;10.02;;;;;;;7.98;77.89;97899.66;6116826;23;20032;-79
2022/11/26 06:52:57;;;;;;;25.95;11.38;;;;;;;8.00;77.82;97908.16;6103086;23;20335;-76
2022/11/26 06:55:24;;;;;;;18.08;9.65;;;;;;;8.00;78.24;97908.16;6097967;23;20022;-79
2022/11/26 06:57:52;;;;;;;18.45;10.07;;;;;;;8.00;77.91;97918.53;6096739;23;20022;-79
2022/11/26 07:00:21;;;;;;;22.30;11.32;;;;;;;7.98;77.58;97915.25;6097445;23;20105;-79
2022/11/26 07:02:49;;;;;;;19.10;11.13;;;;;;;7.98;77.87;97918.69;6096909;23;20028;-79
2022/11/26 07:05:17;;;;;;;16.75;10.00;;;;;;;7.98;77.89;97918.69;6096789;23;20097;-78
2022/11/26 07:07:44;;;;;;;16.13;9.40;;;;;;;7.98;77.40;97925.66;6097273;23;20023;-77
2022/11/26 07:10:12;;;;;;;12.75;8.50;;;;;;;7.96;77.16;97922.34;6096837;23;20026;-78
2022/11/26 07:12:40;;;;;;;18.30;8.73;;;;;;;7.95;77.16;97928.53;6096678;23;20019;-78
2022/11/26 07:15:08;;;;;;;12.48;8.15;;;;;;;7.93;77.52;97927.84;6096614;23;20026;-78
2022/11/26 07:17:37;;;;;;;21.48;9.40;;;;;;;7.94;77.69;97930.31;6096046;23;20101;-79
2022/11/26 07:20:06;;;;;;;19.58;9.00;;;;;;;7.93;77.92;97933.03;6094846;23;20109;-79
2022/11/26 07:22:34;;;;;;;16.83;9.20;;;;;;;7.95;77.92;97938.91;6097654;23;20034;-80
2022/11/26 07:25:02;;;;;;;15.82;8.93;;;;;;;7.95;78.12;97937.13;6097269;23;20023;-80
2022/11/26 07:27:32;;;;;;;18.27;9.85;;;;;;;7.94;78.34;97938.09;6096976;23;20395;-79
2022/11/26 07:30:00;;;;;;;14.57;9.88;;;;;;;7.95;78.13;97941.50;6096539;23;20019;-80
2022/11/26 07:32:29;;;;;;;18.08;9.90;;;;;;;7.96;78.53;97945.75;6097430;23;20022;-81
2022/11/26 07:34:59;;;;;;;17.33;10.25;;;;;;;7.97;78.24;97950.00;6096865;23;20022;-81
2022/11/26 07:37:26;;;;;;;13.68;8.43;;;;;;;7.97;78.20;97955.19;6097661;23;20028;-80
2022/11/26 07:39:54;;;;;;;18.25;8.90;;;;;;;7.97;78.15;97955.19;6097045;23;20029;-81
2022/11/26 07:42:22;;;;;;;17.05;9.02;;;;;;;7.96;78.21;97959.59;6097845;23;20022;-79
2022/11/26 07:44:49;;;;;;;15.93;9.63;;;;;;;7.98;78.88;97956.81;6097031;23;20029;-81
2022/11/26 07:47:17;;;;;;;19.98;9.50;;;;;;;8.02;78.76;97963.41;6097027;23;20022;-79
2022/11/26 07:49:44;;;;;;;19.35;8.60;;;;;;;8.02;78.28;97964.25;6096384;23;20023;-79
2022/11/26 07:52:13;;;;;;;16.40;9.40;;;;;;;8.04;78.37;97971.91;6098965;23;20022;-81
2022/11/26 07:54:41;;;;;;;17.50;9.63;;;;;;;8.05;78.70;97973.56;6098022;23;20040;-79
2022/11/26 07:57:10;;;;;;;13.98;9.00;;;;;;;8.07;78.57;97982.06;6097964;23;20027;-80
2022/11/26 07:59:37;;;;;;;14.55;8.88;;;;;;;8.09;78.68;97985.34;6097288;23;20025;-80
2022/11/26 08:02:05;;;;;;;15.07;8.55;;;;;;;8.09;78.50;97985.34;6097972;23;20022;-80
2022/11/26 08:04:32;;;;;;;19.90;9.80;;;;;;;8.12;78.60;97989.44;6096352;23;20109;-79
2022/11/26 08:07:15;;;;;;;13.20;8.43;;;;;;;8.12;78.38;97994.66;5090148;28;20362;-80
2022/11/26 08:09:52;;;;;;;14.98;8.73;;;;;;;8.12;77.86;97992.88;5075868;28;20071;-81
2022/11/26 08:12:19;;;;;;;19.33;11.02;;;;;;;8.13;77.99;97991.91;5090742;28;20055;-81
2022/11/26 08:14:47;;;;;;;15.93;9.13;;;;;;;8.14;78.24;97995.34;5084481;28;20415;-82
2022/11/26 08:17:15;;;;;;;19.85;9.23;;;;;;;8.14;77.72;98003.13;5069604;28;20045;-81
2022/11/26 08:19:42;;;;;;;16.10;9.55;;;;;;;8.13;77.21;98007.50;5068658;28;20048;-81
2022/11/26 08:22:10;;;;;;;18.17;8.90;;;;;;;8.11;76.97;98009.44;5070078;28;20052;-77
2022/11/26 08:24:39;;;;;;;14.77;8.15;;;;;;;8.11;77.39;98012.03;5069834;28;20045;-81
2022/11/26 08:27:07;;;;;;;15.48;8.18;;;;;;;8.14;77.54;98008.34;5069009;28;20047;-79
2022/11/26 08:29:36;;;;;;;14.00;7.85;;;;;;;8.16;77.85;98017.63;5069196;28;20412;-77
2022/11/26 08:32:03;;;;;;;15.07;9.52;;;;;;;8.18;78.24;98014.91;5068972;28;20048;-79
2022/11/26 08:34:31;;;;;;;13.82;8.15;;;;;;;8.18;77.64;98012.31;5069336;28;20067;-79
2022/11/26 08:36:59;;;;;;;13.68;8.02;;;;;;;8.20;77.69;98019.03;5069871;28;20094;-80
2022/11/26 08:39:27;;;;;;;16.02;8.00;;;;;;;8.20;77.28;98029.44;5068948;28;20052;-79
2022/11/26 08:41:56;;;;;;;11.57;7.18;;;;;;;8.23;77.84;98030.94;5074007;28;20059;-79
2022/11/26 08:44:23;;;;;;;12.23;7.45;;;;;;;8.26;78.42;98028.06;5070860;28;20041;-83
2022/11/26 08:46:51;;;;;;;15.43;7.68;;;;;;;8.27;78.03;98032.31;5069468;28;20051;-79
2022/11/26 08:49:19;;;;;;;12.85;7.85;;;;;;;8.30;77.63;98031.22;5068682;28;20057;-79
2022/11/26 08:51:46;;;;;;;12.88;6.93;;;;;;;8.32;77.25;98030.13;5068928;28;20131;-81
2022/11/26 08:54:14;;;;;;;16.40;7.78;;;;;;;8.33;76.99;98024.00;5069101;28;20057;-81
2022/11/26 08:56:42;;;;;;;12.57;6.72;;;;;;;8.33;76.49;98034.41;5069035;28;20041;-81
2022/11/26 08:59:10;;;;;;;10.90;6.70;;;;;;;8.35;77.12;98034.25;5068502;28;20505;-80
2022/11/26 09:01:38;;;;;;;12.30;6.63;;;;;;;8.38;77.24;98034.81;5068212;28;20041;-81
2022/11/26 09:04:06;;;;;;;9.68;6.13;;;;;;;8.40;76.37;98039.88;5068536;28;20049;-80
2022/11/26 09:06:36;;;;;;;12.57;6.45;;;;;;;8.41;76.74;98046.75;5068851;28;20135;-80
2022/11/26 09:09:16;;;;;;;12.30;6.38;;;;;;;8.42;76.02;98044.03;5070964;28;20052;-79
2022/11/26 09:11:47;;;;;;;43.72;27.20;;;;;;;8.41;75.76;98050.16;5090106;28;20345;-81
2022/11/26 09:14:18;;;;;;;21.58;14.10;;;;;;;8.42;76.05;98048.41;5085499;28;20426;-81
2022/11/26 09:16:46;;;;;;;16.67;9.32;;;;;;;8.44;76.38;98046.50;5068632;28;20679;-81
2022/11/26 09:19:14;;;;;;;13.32;7.07;;;;;;;8.47;75.86;98048.00;5056125;28;20052;-81
2022/11/26 09:21:43;;;;;;;11.52;6.85;;;;;;;8.49;76.38;98051.31;5056094;28;20125;-80
2022/11/26 09:24:10;;;;;;;13.73;7.38;;;;;;;8.49;76.81;98057.31;5055355;28;20118;-81
2022/11/26 09:26:38;;;;;;;15.45;8.75;;;;;;;8.49;75.71;98049.53;5055516;28;20037;-82
2022/11/26 09:29:06;;;;;;;14.38;8.35;;;;;;;8.50;75.33;98060.75;5055087;28;20041;-81
2022/11/26 09:31:35;;;;;;;19.63;9.23;;;;;;;8.48;74.68;98063.47;5055475;28;20051;-81
2022/11/26 09:34:21;;;;;;;17.88;9.15;;;;;;;8.49;75.05;98062.53;5056086;28;20049;-78
2022/11/26 09:36:49;;;;;;;18.08;9.35;;;;;;;8.50;75.36;98051.16;5056133;28;20041;-78
2022/11/26 09:39:17;;;;;;;13.23;8.63;;;;;;;8.50;75.40;98051.16;5055518;28;20057;-79
2022/11/26 09:41:50;;;;;;;14.80;8.23;;;;;;;8.52;75.38;98056.22;5055127;28;20087;-79
2022/11/26 09:44:25;;;;;;;44.20;26.70;;;;;;;8.52;74.54;98053.63;5055416;28;20060;-79
2022/11/26 09:47:09;;;;;;;67.72;44.28;;;;;;;8.53;74.99;98053.50;5054092;28;20052;-78
2022/11/26 09:49:48;;;;;;;20.15;13.00;;;;;;;8.54;75.31;98051.72;5053761;28;20516;-79
2022/11/26 09:52:19;;;;;;;15.07;8.95;;;;;;;8.53;75.55;98053.50;5053246;28;20128;-75
2022/11/26 09:54:50;;;;;;;18.10;8.50;;;;;;;8.56;76.12;98045.41;5053615;28;20049;-78
2022/11/26 09:57:23;;;;;;;16.17;8.60;;;;;;;8.60;76.75;98048.59;5054292;28;20653;-78
2022/11/26 09:59:51;;;;;;;;;;;;;;;8.62;77.09;98050.09;5065700;28;20068;-78
2022/11/26 10:02:20;;;;;;;15.90;7.80;;;;;;;8.60;76.12;98052.00;5074401;28;19921;-79
2022/11/26 10:04:48;;;;;;;17.60;8.20;;;;;;;8.60;76.56;98046.81;5070100;28;20132;-80
2022/11/26 10:07:39;;;;;;;16.50;8.48;;;;;;;8.60;76.06;98051.19;5055793;28;20049;-79
2022/11/26 10:10:16;;;;;;;19.55;10.95;;;;;;;8.63;76.84;98050.91;5056054;28;20056;-80
2022/11/26 10:12:57;;;;;;;14.38;8.10;;;;;;;8.65;75.63;98052.41;5056004;28;20518;-80
2022/11/26 10:15:56;;;;;;;11.98;6.22;;;;;;;8.67;75.52;98052.28;5056281;28;20103;-80
2022/11/26 10:18:36;;;;;;;12.23;6.38;;;;;;;8.68;75.58;98051.34;5055014;28;20049;-82
2022/11/26 10:21:21;;;;;;;12.55;6.60;;;;;;;8.69;75.65;98050.38;5055365;28;20057;-82
2022/11/26 10:24:14;;;;;;;14.23;7.22;;;;;;;8.70;74.86;98046.81;5037999;28;20060;-82
2022/11/26 10:26:43;;;;;;;12.30;6.00;;;;;;;8.71;74.97;98048.47;5055663;28;20056;-81
2022/11/26 10:29:21;;;;;;;11.57;5.57;;;;;;;8.71;74.43;98050.25;5054748;28;20044;-81
2022/11/26 10:31:50;;;;;;;13.20;5.82;;;;;;;8.74;75.12;98057.78;5068300;28;20059;-83
2022/11/26 10:34:25;;;;;;;12.02;5.75;;;;;;;8.75;75.40;98052.44;5076777;28;20110;-82
2022/11/26 10:36:56;;;;;;;13.45;5.93;;;;;;;8.78;74.90;98046.97;5071972;28;20053;-82
2022/11/26 10:39:24;;;;;;;8.65;6.10;;;;;;;8.83;74.60;98043.97;5057080;28;20056;-81
2022/11/26 10:41:52;;;;;;;13.38;5.30;;;;;;;8.88;74.76;98044.41;5055384;28;20049;-81
2022/11/26 10:44:32;;;;;;;10.07;5.00;;;;;;;8.97;74.59;98045.38;5055150;28;20524;-82
2022/11/26 10:47:20;;;;;;;6.18;4.25;;;;;;;9.10;74.10;98039.91;5054647;28;20098;-80
2022/11/26 10:49:50;;;;;;;7.22;4.00;;;;;;;9.28;72.50;98033.03;5052795;28;20048;-80
2022/11/26 10:52:23;;;;;;;9.25;4.60;;;;;;;9.50;72.30;98031.91;5034213;28;20408;-81
2022/11/26 10:55:07;;;;;;;9.50;4.72;;;;;;;9.77;71.96;98020.72;5045902;28;20127;-78
2022/11/26 10:57:37;;;;;;;11.90;5.45;;;;;;;10.03;70.81;98020.09;5052220;28;20045;-79
2022/11/26 11:00:06;;;;;;;28.52;17.58;;;;;;;10.32;69.97;98020.03;5054028;28;20075;-77
2022/11/26 11:02:37;;;;;;;13.52;6.60;;;;;;;10.60;69.74;98018.19;5053549;28;20057;-79
2022/11/26 11:05:09;;;;;;;7.75;4.40;;;;;;;10.91;67.22;98026.50;5054390;28;20049;-80
2022/11/26 11:07:42;;;;;;;8.32;4.22;;;;;;;11.13;65.83;98034.88;5055139;28;20049;-78
2022/11/26 11:10:17;;;;;;;7.30;4.28;;;;;;;11.32;68.36;98029.47;5053936;28;20083;-82
2022/11/26 11:12:49;;;;;;;7.90;4.18;;;;;;;11.48;64.31;98022.75;5053644;28;20055;-81
2022/11/26 11:15:22;;;;;;;10.15;4.15;;;;;;;11.72;63.94;98019.47;5053505;28;20049;-82
2022/11/26 11:17:56;;;;;;;7.40;3.67;;;;;;;11.98;63.29;98018.66;5053831;28;20044;-81
2022/11/26 11:20:36;;;;;;;7.40;4.07;;;;;;;12.24;62.84;98016.00;5053526;28;20041;-81
2022/11/26 11:23:16;;;;;;;6.65;3.25;;;;;;;12.50;63.93;98021.16;5053721;28;20056;-81
2022/11/26 11:25:47;;;;;;;6.53;3.60;;;;;;;12.80;62.47;98021.56;5053268;28;20144;-80
2022/11/26 11:28:19;;;;;;;9.07;3.92;;;;;;;13.01;61.60;98016.72;5052952;28;20044;-81
2022/11/26 11:30:59;;;;;;;7.53;4.17;;;;;;;13.11;58.32;98016.53;5053771;28;20045;-81
2022/11/26 11:33:28;;;;;;;10.48;4.75;;;;;;;13.25;60.80;98018.53;5052759;28;20288;-80
2022/11/26 11:36:03;;;;;;;8.55;4.20;;;;;;;13.33;59.51;98017.72;5045239;28;20122;-79
2022/11/26 11:38:33;;;;;;;6.90;4.20;;;;;;;13.34;60.65;98014.94;5052996;28;20055;-80
2022/11/26 11:41:04;;;;;;;5.80;2.90;;;;;;;13.37;57.17;98008.53;5052900;28;20048;-81
2022/11/26 11:43:36;;;;;;;7.85;3.15;;;;;;;13.39;56.42;98002.16;5052979;28;20453;-80
2022/11/26 11:46:18;;;;;;;9.90;3.85;;;;;;;13.39;57.41;98004.78;5053446;28;20477;-80
2022/11/26 11:48:57;;;;;;;7.57;3.38;;;;;;;13.26;55.40;97998.38;5052305;28;20522;-80